sensor_id;sensor_type;location;lat;lon;timestamp;P1;durP1;ratioP1;P2;durP2;ratioP2
56319;SDS011;42226;42.382;23.748;2022-12-18T00:01:34;15.18;;;12.60;;
56319;SDS011;42226;42.382;23.748;2022-12-18T00:04:07;12.20;;;9.90;;
56319;SDS011;42226;42.382;23.748;2022-12-18T00:06:50;20.73;;;13.27;;
56319;SDS011;42226;42.382;23.748;2022-12-18T00:09:18;16.38;;;12.27;;
56319;SDS011;42226;42.382;23.748;2022-12-18T00:11:45;25.83;;;16.23;;
56319;SDS011;42226;42.382;23.748;2022-12-18T00:14:13;16.77;;;12.25;;
56319;SDS011;42226;42.382;23.748;2022-12-18T00:16:43;14.15;;;12.00;;
56319;SDS011;42226;42.382;23.748;2022-12-18T00:19:12;14.52;;;12.23;;
56319;SDS011;42226;42.382;23.748;2022-12-18T00:21:41;13.05;;;11.25;;
56319;SDS011;42226;42.382;23.748;2022-12-18T00:24:10;23.60;;;15.90;;
56319;SDS011;42226;42.382;23.748;2022-12-18T00:26:37;17.58;;;12.30;;
56319;SDS011;42226;42.382;23.748;2022-12-18T00:29:10;14.77;;;10.85;;
56319;SDS011;42226;42.382;23.748;2022-12-18T00:31:40;18.50;;;12.98;;
56319;SDS011;42226;42.382;23.748;2022-12-18T00:34:09;17.52;;;12.60;;
56319;SDS011;42226;42.382;23.748;2022-12-18T00:36:39;18.17;;;13.45;;
56319;SDS011;42226;42.382;23.748;2022-12-18T00:39:08;16.60;;;11.75;;
56319;SDS011;42226;42.382;23.748;2022-12-18T00:41:37;14.32;;;11.55;;
56319;SDS011;42226;42.382;23.748;2022-12-18T00:44:24;13.10;;;10.77;;
56319;SDS011;42226;42.382;23.748;2022-12-18T00:46:51;14.80;;;9.75;;
56319;SDS011;42226;42.382;23.748;2022-12-18T00:49:19;11.30;;;9.20;;
56319;SDS011;42226;42.382;23.748;2022-12-18T00:51:46;12.35;;;10.25;;
56319;SDS011;42226;42.382;23.748;2022-12-18T00:54:15;18.13;;;11.75;;
56319;SDS011;42226;42.382;23.748;2022-12-18T00:56:43;14.30;;;11.32;;
56319;SDS011;42226;42.382;23.748;2022-12-18T00:59:10;13.25;;;10.63;;
56319;SDS011;42226;42.382;23.748;2022-12-18T01:01:38;16.63;;;13.05;;
56319;SDS011;42226;42.382;23.748;2022-12-18T01:04:05;14.52;;;11.90;;
56319;SDS011;42226;42.382;23.748;2022-12-18T01:06:34;12.32;;;10.23;;
56319;SDS011;42226;42.382;23.748;2022-12-18T01:09:01;17.10;;;12.52;;
56319;SDS011;42226;42.382;23.748;2022-12-18T01:11:29;11.55;;;10.32;;
56319;SDS011;42226;42.382;23.748;2022-12-18T01:13:57;12.35;;;11.05;;
56319;SDS011;42226;42.382;23.748;2022-12-18T01:16:24;12.55;;;10.80;;
56319;SDS011;42226;42.382;23.748;2022-12-18T01:18:52;19.35;;;13.05;;
56319;SDS011;42226;42.382;23.748;2022-12-18T01:21:21;16.20;;;11.95;;
56319;SDS011;42226;42.382;23.748;2022-12-18T01:23:53;11.50;;;9.73;;
56319;SDS011;42226;42.382;23.748;2022-12-18T01:26:22;12.23;;;9.98;;
56319;SDS011;42226;42.382;23.748;2022-12-18T01:28:51;13.93;;;10.68;;
56319;SDS011;42226;42.382;23.748;2022-12-18T01:31:21;15.52;;;10.27;;
56319;SDS011;42226;42.382;23.748;2022-12-18T01:33:53;9.05;;;8.15;;
56319;SDS011;42226;42.382;23.748;2022-12-18T01:36:23;8.90;;;8.00;;
56319;SDS011;42226;42.382;23.748;2022-12-18T01:38:52;15.18;;;9.75;;
56319;SDS011;42226;42.382;23.748;2022-12-18T01:41:22;13.48;;;10.07;;
56319;SDS011;42226;42.382;23.748;2022-12-18T01:43:53;10.77;;;8.38;;
56319;SDS011;42226;42.382;23.748;2022-12-18T01:46:23;10.02;;;8.23;;
56319;SDS011;42226;42.382;23.748;2022-12-18T01:48:53;10.23;;;8.23;;
56319;SDS011;42226;42.382;23.748;2022-12-18T01:51:25;8.90;;;8.00;;
56319;SDS011;42226;42.382;23.748;2022-12-18T01:53:54;8.88;;;7.97;;
56319;SDS011;42226;42.382;23.748;2022-12-18T01:56:23;7.93;;;7.15;;
56319;SDS011;42226;42.382;23.748;2022-12-18T01:58:55;9.65;;;8.25;;
56319;SDS011;42226;42.382;23.748;2022-12-18T02:01:31;8.15;;;7.38;;
56319;SDS011;42226;42.382;23.748;2022-12-18T02:10:45;7.30;;;6.43;;
56319;SDS011;42226;42.382;23.748;2022-12-18T02:13:25;9.68;;;7.38;;
56319;SDS011;42226;42.382;23.748;2022-12-18T02:19:15;8.27;;;7.47;;
56319;SDS011;42226;42.382;23.748;2022-12-18T02:25:17;8.27;;;6.80;;
56319;SDS011;42226;42.382;23.748;2022-12-18T02:28:20;8.73;;;7.32;;
56319;SDS011;42226;42.382;23.748;2022-12-18T02:30:52;8.02;;;6.78;;
56319;SDS011;42226;42.382;23.748;2022-12-18T02:33:22;8.93;;;6.70;;
56319;SDS011;42226;42.382;23.748;2022-12-18T02:35:50;8.70;;;7.30;;
56319;SDS011;42226;42.382;23.748;2022-12-18T02:38:19;8.30;;;6.55;;
56319;SDS011;42226;42.382;23.748;2022-12-18T02:40:47;7.40;;;6.28;;
56319;SDS011;42226;42.382;23.748;2022-12-18T02:43:16;6.18;;;5.57;;
56319;SDS011;42226;42.382;23.748;2022-12-18T02:45:47;5.82;;;5.20;;
56319;SDS011;42226;42.382;23.748;2022-12-18T02:48:25;7.22;;;6.50;;
56319;SDS011;42226;42.382;23.748;2022-12-18T02:51:09;6.65;;;5.75;;
56319;SDS011;42226;42.382;23.748;2022-12-18T02:53:52;8.90;;;7.15;;
56319;SDS011;42226;42.382;23.748;2022-12-18T02:56:28;5.93;;;5.32;;
56319;SDS011;42226;42.382;23.748;2022-12-18T02:59:04;6.00;;;5.38;;
56319;SDS011;42226;42.382;23.748;2022-12-18T03:04:15;5.57;;;5.07;;
56319;SDS011;42226;42.382;23.748;2022-12-18T03:06:58;6.43;;;5.82;;
56319;SDS011;42226;42.382;23.748;2022-12-18T03:09:39;7.50;;;5.95;;
56319;SDS011;42226;42.382;23.748;2022-12-18T03:17:40;7.18;;;5.75;;
56319;SDS011;42226;42.382;23.748;2022-12-18T03:20:17;7.28;;;5.30;;
56319;SDS011;42226;42.382;23.748;2022-12-18T03:22:51;6.35;;;4.95;;
56319;SDS011;42226;42.382;23.748;2022-12-18T03:25:23;6.65;;;5.20;;
56319;SDS011;42226;42.382;23.748;2022-12-18T03:27:55;6.55;;;5.30;;
56319;SDS011;42226;42.382;23.748;2022-12-18T03:30:24;6.55;;;5.63;;
56319;SDS011;42226;42.382;23.748;2022-12-18T03:33:08;6.55;;;4.78;;
56319;SDS011;42226;42.382;23.748;2022-12-18T03:35:42;5.28;;;4.75;;
56319;SDS011;42226;42.382;23.748;2022-12-18T03:38:09;5.32;;;4.80;;
56319;SDS011;42226;42.382;23.748;2022-12-18T03:40:45;5.85;;;5.35;;
56319;SDS011;42226;42.382;23.748;2022-12-18T03:43:34;6.38;;;4.90;;
56319;SDS011;42226;42.382;23.748;2022-12-18T03:46:37;7.05;;;5.38;;
56319;SDS011;42226;42.382;23.748;2022-12-18T03:52:36;7.82;;;5.78;;
56319;SDS011;42226;42.382;23.748;2022-12-18T03:55:14;6.82;;;5.70;;
56319;SDS011;42226;42.382;23.748;2022-12-18T03:57:43;6.70;;;6.00;;
56319;SDS011;42226;42.382;23.748;2022-12-18T04:00:15;6.20;;;5.60;;
56319;SDS011;42226;42.382;23.748;2022-12-18T04:02:45;5.30;;;4.80;;
56319;SDS011;42226;42.382;23.748;2022-12-18T04:05:19;6.18;;;5.05;;
56319;SDS011;42226;42.382;23.748;2022-12-18T04:07:49;6.07;;;5.18;;
56319;SDS011;42226;42.382;23.748;2022-12-18T04:10:17;7.15;;;5.50;;
56319;SDS011;42226;42.382;23.748;2022-12-18T04:12:44;6.22;;;5.63;;
56319;SDS011;42226;42.382;23.748;2022-12-18T04:15:12;7.38;;;5.45;;
56319;SDS011;42226;42.382;23.748;2022-12-18T04:17:43;6.97;;;5.90;;
56319;SDS011;42226;42.382;23.748;2022-12-18T04:20:15;6.60;;;6.00;;
56319;SDS011;42226;42.382;23.748;2022-12-18T04:22:43;7.43;;;5.35;;
56319;SDS011;42226;42.382;23.748;2022-12-18T04:25:11;6.55;;;5.18;;
56319;SDS011;42226;42.382;23.748;2022-12-18T04:27:39;6.95;;;5.50;;
56319;SDS011;42226;42.382;23.748;2022-12-18T04:30:05;5.97;;;4.97;;
56319;SDS011;42226;42.382;23.748;2022-12-18T04:32:33;4.35;;;3.95;;
56319;SDS011;42226;42.382;23.748;2022-12-18T04:35:02;5.15;;;4.43;;
56319;SDS011;42226;42.382;23.748;2022-12-18T04:37:31;4.50;;;4.10;;
56319;SDS011;42226;42.382;23.748;2022-12-18T04:39:59;5.15;;;4.18;;
56319;SDS011;42226;42.382;23.748;2022-12-18T04:42:26;5.43;;;4.90;;
56319;SDS011;42226;42.382;23.748;2022-12-18T04:44:53;4.85;;;4.30;;
56319;SDS011;42226;42.382;23.748;2022-12-18T04:47:20;5.60;;;4.38;;
56319;SDS011;42226;42.382;23.748;2022-12-18T04:49:47;9.18;;;5.10;;
56319;SDS011;42226;42.382;23.748;2022-12-18T04:52:14;6.30;;;4.68;;
56319;SDS011;42226;42.382;23.748;2022-12-18T04:54:42;6.22;;;4.30;;
56319;SDS011;42226;42.382;23.748;2022-12-18T04:57:09;5.25;;;4.50;;
56319;SDS011;42226;42.382;23.748;2022-12-18T04:59:36;5.63;;;4.03;;
56319;SDS011;42226;42.382;23.748;2022-12-18T05:02:02;5.03;;;3.90;;
56319;SDS011;42226;42.382;23.748;2022-12-18T05:04:29;4.05;;;3.67;;
56319;SDS011;42226;42.382;23.748;2022-12-18T05:06:56;4.32;;;3.90;;
56319;SDS011;42226;42.382;23.748;2022-12-18T05:09:23;4.15;;;3.55;;
56319;SDS011;42226;42.382;23.748;2022-12-18T05:11:50;5.47;;;3.55;;
56319;SDS011;42226;42.382;23.748;2022-12-18T05:14:18;4.88;;;4.18;;
56319;SDS011;42226;42.382;23.748;2022-12-18T05:16:45;4.43;;;3.65;;
56319;SDS011;42226;42.382;23.748;2022-12-18T05:19:12;5.28;;;4.78;;
56319;SDS011;42226;42.382;23.748;2022-12-18T05:21:39;5.10;;;4.00;;
56319;SDS011;42226;42.382;23.748;2022-12-18T05:24:07;5.38;;;3.92;;
56319;SDS011;42226;42.382;23.748;2022-12-18T05:26:34;4.82;;;4.00;;
56319;SDS011;42226;42.382;23.748;2022-12-18T05:29:02;4.78;;;4.30;;
56319;SDS011;42226;42.382;23.748;2022-12-18T05:31:28;4.80;;;4.35;;
56319;SDS011;42226;42.382;23.748;2022-12-18T05:33:55;5.10;;;4.50;;
56319;SDS011;42226;42.382;23.748;2022-12-18T05:36:23;5.78;;;4.20;;
56319;SDS011;42226;42.382;23.748;2022-12-18T05:38:51;4.32;;;3.83;;
56319;SDS011;42226;42.382;23.748;2022-12-18T05:41:18;4.68;;;4.18;;
56319;SDS011;42226;42.382;23.748;2022-12-18T05:43:45;5.57;;;4.05;;
56319;SDS011;42226;42.382;23.748;2022-12-18T05:46:14;5.25;;;4.00;;
56319;SDS011;42226;42.382;23.748;2022-12-18T05:48:43;4.72;;;4.10;;
56319;SDS011;42226;42.382;23.748;2022-12-18T05:51:12;4.82;;;4.32;;
56319;SDS011;42226;42.382;23.748;2022-12-18T05:53:41;4.55;;;3.97;;
56319;SDS011;42226;42.382;23.748;2022-12-18T05:56:10;5.15;;;4.25;;
56319;SDS011;42226;42.382;23.748;2022-12-18T05:58:45;4.32;;;3.92;;
56319;SDS011;42226;42.382;23.748;2022-12-18T06:01:15;4.88;;;4.18;;
56319;SDS011;42226;42.382;23.748;2022-12-18T06:03:45;5.20;;;4.28;;
56319;SDS011;42226;42.382;23.748;2022-12-18T06:06:23;4.38;;;3.70;;
56319;SDS011;42226;42.382;23.748;2022-12-18T06:08:53;4.30;;;3.83;;
56319;SDS011;42226;42.382;23.748;2022-12-18T06:11:23;4.75;;;4.00;;
56319;SDS011;42226;42.382;23.748;2022-12-18T06:13:52;4.25;;;3.72;;
56319;SDS011;42226;42.382;23.748;2022-12-18T06:16:22;4.13;;;3.72;;
56319;SDS011;42226;42.382;23.748;2022-12-18T06:18:50;4.68;;;3.90;;
56319;SDS011;42226;42.382;23.748;2022-12-18T06:21:17;4.10;;;3.70;;
56319;SDS011;42226;42.382;23.748;2022-12-18T06:23:44;5.13;;;3.95;;
56319;SDS011;42226;42.382;23.748;2022-12-18T06:26:12;4.00;;;3.60;;
56319;SDS011;42226;42.382;23.748;2022-12-18T06:28:40;3.83;;;3.50;;
56319;SDS011;42226;42.382;23.748;2022-12-18T06:31:07;4.32;;;3.88;;
56319;SDS011;42226;42.382;23.748;2022-12-18T06:33:34;4.45;;;3.15;;
56319;SDS011;42226;42.382;23.748;2022-12-18T06:36:03;5.05;;;3.65;;
56319;SDS011;42226;42.382;23.748;2022-12-18T06:38:33;3.90;;;3.50;;
56319;SDS011;42226;42.382;23.748;2022-12-18T06:41:06;4.20;;;3.80;;
56319;SDS011;42226;42.382;23.748;2022-12-18T06:43:37;4.45;;;4.03;;
56319;SDS011;42226;42.382;23.748;2022-12-18T06:46:04;5.90;;;4.25;;
56319;SDS011;42226;42.382;23.748;2022-12-18T06:48:33;6.65;;;4.13;;
56319;SDS011;42226;42.382;23.748;2022-12-18T06:51:02;5.00;;;4.50;;
56319;SDS011;42226;42.382;23.748;2022-12-18T06:53:29;6.05;;;5.45;;
56319;SDS011;42226;42.382;23.748;2022-12-18T06:56:05;5.20;;;4.70;;
56319;SDS011;42226;42.382;23.748;2022-12-18T06:58:34;5.15;;;4.65;;
56319;SDS011;42226;42.382;23.748;2022-12-18T07:01:02;5.82;;;4.32;;
56319;SDS011;42226;42.382;23.748;2022-12-18T07:03:32;5.38;;;4.57;;
56319;SDS011;42226;42.382;23.748;2022-12-18T07:06:00;5.57;;;5.00;;
56319;SDS011;42226;42.382;23.748;2022-12-18T07:08:28;5.28;;;4.55;;
56319;SDS011;42226;42.382;23.748;2022-12-18T07:10:57;6.75;;;6.05;;
56319;SDS011;42226;42.382;23.748;2022-12-18T07:13:25;5.32;;;4.70;;
56319;SDS011;42226;42.382;23.748;2022-12-18T07:15:51;6.10;;;5.50;;
56319;SDS011;42226;42.382;23.748;2022-12-18T07:18:19;5.75;;;5.15;;
56319;SDS011;42226;42.382;23.748;2022-12-18T07:20:45;6.35;;;5.20;;
56319;SDS011;42226;42.382;23.748;2022-12-18T07:23:13;6.90;;;4.60;;
56319;SDS011;42226;42.382;23.748;2022-12-18T07:25:40;4.93;;;4.45;;
56319;SDS011;42226;42.382;23.748;2022-12-18T07:28:07;5.55;;;4.45;;
56319;SDS011;42226;42.382;23.748;2022-12-18T07:30:36;5.20;;;4.70;;
56319;SDS011;42226;42.382;23.748;2022-12-18T07:33:04;4.85;;;4.30;;
56319;SDS011;42226;42.382;23.748;2022-12-18T07:35:32;5.25;;;4.40;;
56319;SDS011;42226;42.382;23.748;2022-12-18T07:37:59;5.10;;;4.47;;
56319;SDS011;42226;42.382;23.748;2022-12-18T07:40:26;5.00;;;4.50;;
56319;SDS011;42226;42.382;23.748;2022-12-18T07:42:53;5.40;;;4.28;;
56319;SDS011;42226;42.382;23.748;2022-12-18T07:45:20;5.72;;;4.82;;
56319;SDS011;42226;42.382;23.748;2022-12-18T07:47:47;5.70;;;4.70;;
56319;SDS011;42226;42.382;23.748;2022-12-18T07:50:13;6.68;;;5.10;;
56319;SDS011;42226;42.382;23.748;2022-12-18T07:52:41;5.82;;;5.00;;
56319;SDS011;42226;42.382;23.748;2022-12-18T07:55:08;6.47;;;4.93;;
56319;SDS011;42226;42.382;23.748;2022-12-18T07:57:35;6.50;;;5.47;;
56319;SDS011;42226;42.382;23.748;2022-12-18T08:00:02;5.80;;;5.20;;
56319;SDS011;42226;42.382;23.748;2022-12-18T08:02:32;6.40;;;5.47;;
56319;SDS011;42226;42.382;23.748;2022-12-18T08:04:58;6.13;;;5.50;;
56319;SDS011;42226;42.382;23.748;2022-12-18T08:07:25;6.82;;;5.43;;
56319;SDS011;42226;42.382;23.748;2022-12-18T08:09:52;7.40;;;6.13;;
56319;SDS011;42226;42.382;23.748;2022-12-18T08:12:19;7.20;;;5.90;;
56319;SDS011;42226;42.382;23.748;2022-12-18T08:14:47;6.78;;;5.85;;
56319;SDS011;42226;42.382;23.748;2022-12-18T08:17:13;6.93;;;5.40;;
56319;SDS011;42226;42.382;23.748;2022-12-18T08:19:40;7.28;;;5.85;;
56319;SDS011;42226;42.382;23.748;2022-12-18T08:22:07;7.22;;;5.93;;
56319;SDS011;42226;42.382;23.748;2022-12-18T08:24:36;7.13;;;6.20;;
56319;SDS011;42226;42.382;23.748;2022-12-18T08:27:02;8.27;;;6.05;;
56319;SDS011;42226;42.382;23.748;2022-12-18T08:29:30;9.15;;;6.35;;
56319;SDS011;42226;42.382;23.748;2022-12-18T08:31:57;6.80;;;6.10;;
56319;SDS011;42226;42.382;23.748;2022-12-18T08:34:24;6.82;;;6.10;;
56319;SDS011;42226;42.382;23.748;2022-12-18T08:36:52;7.68;;;6.38;;
56319;SDS011;42226;42.382;23.748;2022-12-18T08:39:19;6.90;;;6.20;;
56319;SDS011;42226;42.382;23.748;2022-12-18T08:41:47;7.53;;;6.35;;
56319;SDS011;42226;42.382;23.748;2022-12-18T08:44:34;7.35;;;6.40;;
56319;SDS011;42226;42.382;23.748;2022-12-18T08:47:07;7.53;;;6.22;;
56319;SDS011;42226;42.382;23.748;2022-12-18T08:49:34;7.07;;;6.25;;
56319;SDS011;42226;42.382;23.748;2022-12-18T08:52:01;7.97;;;6.20;;
56319;SDS011;42226;42.382;23.748;2022-12-18T08:54:29;7.28;;;6.07;;
56319;SDS011;42226;42.382;23.748;2022-12-18T08:56:56;7.47;;;6.43;;
56319;SDS011;42226;42.382;23.748;2022-12-18T08:59:23;7.47;;;5.90;;
56319;SDS011;42226;42.382;23.748;2022-12-18T09:01:53;8.70;;;6.55;;
56319;SDS011;42226;42.382;23.748;2022-12-18T09:04:20;8.85;;;6.25;;
56319;SDS011;42226;42.382;23.748;2022-12-18T09:06:48;7.75;;;6.18;;
56319;SDS011;42226;42.382;23.748;2022-12-18T09:09:14;6.95;;;6.05;;
56319;SDS011;42226;42.382;23.748;2022-12-18T09:11:42;8.07;;;6.20;;
56319;SDS011;42226;42.382;23.748;2022-12-18T09:14:09;8.02;;;6.65;;
56319;SDS011;42226;42.382;23.748;2022-12-18T09:16:37;6.82;;;5.78;;
56319;SDS011;42226;42.382;23.748;2022-12-18T09:19:04;7.03;;;5.32;;
56319;SDS011;42226;42.382;23.748;2022-12-18T09:21:32;6.97;;;6.28;;
56319;SDS011;42226;42.382;23.748;2022-12-18T09:24:04;8.25;;;6.60;;
56319;SDS011;42226;42.382;23.748;2022-12-18T09:26:32;7.68;;;6.40;;
56319;SDS011;42226;42.382;23.748;2022-12-18T09:28:59;7.30;;;5.97;;
56319;SDS011;42226;42.382;23.748;2022-12-18T09:31:26;9.05;;;6.55;;
56319;SDS011;42226;42.382;23.748;2022-12-18T09:33:54;7.75;;;6.10;;
56319;SDS011;42226;42.382;23.748;2022-12-18T09:36:22;8.45;;;7.05;;
56319;SDS011;42226;42.382;23.748;2022-12-18T09:38:50;7.28;;;5.82;;
56319;SDS011;42226;42.382;23.748;2022-12-18T09:44:28;6.65;;;5.40;;
56319;SDS011;42226;42.382;23.748;2022-12-18T09:50:01;6.18;;;5.32;;
56319;SDS011;42226;42.382;23.748;2022-12-18T09:52:41;8.20;;;5.60;;
56319;SDS011;42226;42.382;23.748;2022-12-18T09:55:28;6.95;;;5.72;;
56319;SDS011;42226;42.382;23.748;2022-12-18T10:01:16;6.70;;;5.63;;
56319;SDS011;42226;42.382;23.748;2022-12-18T10:03:47;5.78;;;5.07;;
56319;SDS011;42226;42.382;23.748;2022-12-18T10:08:58;7.40;;;5.80;;
56319;SDS011;42226;42.382;23.748;2022-12-18T10:17:45;4.95;;;3.97;;
56319;SDS011;42226;42.382;23.748;2022-12-18T10:26:24;5.40;;;4.55;;
56319;SDS011;42226;42.382;23.748;2022-12-18T10:28:52;4.88;;;4.43;;
56319;SDS011;42226;42.382;23.748;2022-12-18T10:31:20;5.78;;;4.47;;
56319;SDS011;42226;42.382;23.748;2022-12-18T10:33:50;6.35;;;5.72;;
56319;SDS011;42226;42.382;23.748;2022-12-18T10:36:19;8.60;;;7.03;;
56319;SDS011;42226;42.382;23.748;2022-12-18T10:38:46;8.35;;;7.20;;
56319;SDS011;42226;42.382;23.748;2022-12-18T10:43:47;8.85;;;6.85;;
56319;SDS011;42226;42.382;23.748;2022-12-18T10:46:34;5.90;;;5.30;;
56319;SDS011;42226;42.382;23.748;2022-12-18T10:49:02;8.50;;;7.03;;
56319;SDS011;42226;42.382;23.748;2022-12-18T10:51:31;8.48;;;7.15;;
56319;SDS011;42226;42.382;23.748;2022-12-18T10:56:36;7.25;;;5.80;;
56319;SDS011;42226;42.382;23.748;2022-12-18T10:59:04;7.25;;;5.85;;
56319;SDS011;42226;42.382;23.748;2022-12-18T11:01:51;6.53;;;5.00;;
56319;SDS011;42226;42.382;23.748;2022-12-18T11:04:21;5.90;;;5.30;;
56319;SDS011;42226;42.382;23.748;2022-12-18T11:07:04;6.20;;;5.60;;
56319;SDS011;42226;42.382;23.748;2022-12-18T11:09:37;7.38;;;5.80;;
56319;SDS011;42226;42.382;23.748;2022-12-18T11:12:19;5.68;;;4.93;;
56319;SDS011;42226;42.382;23.748;2022-12-18T11:14:49;6.50;;;4.93;;
56319;SDS011;42226;42.382;23.748;2022-12-18T11:17:36;6.28;;;5.03;;
56319;SDS011;42226;42.382;23.748;2022-12-18T11:20:23;5.90;;;5.30;;
56319;SDS011;42226;42.382;23.748;2022-12-18T11:23:04;5.25;;;4.60;;
56319;SDS011;42226;42.382;23.748;2022-12-18T11:25:36;6.03;;;5.43;;
56319;SDS011;42226;42.382;23.748;2022-12-18T11:28:05;5.15;;;4.60;;
56319;SDS011;42226;42.382;23.748;2022-12-18T11:31:08;5.25;;;4.30;;
56319;SDS011;42226;42.382;23.748;2022-12-18T11:36:35;5.63;;;4.15;;
56319;SDS011;42226;42.382;23.748;2022-12-18T11:39:35;4.65;;;4.25;;
56319;SDS011;42226;42.382;23.748;2022-12-18T11:47:43;4.78;;;4.22;;
56319;SDS011;42226;42.382;23.748;2022-12-18T11:53:23;5.65;;;4.85;;
56319;SDS011;42226;42.382;23.748;2022-12-18T11:55:58;4.82;;;4.43;;
56319;SDS011;42226;42.382;23.748;2022-12-18T12:01:13;5.65;;;4.63;;
56319;SDS011;42226;42.382;23.748;2022-12-18T12:03:52;5.40;;;4.72;;
56319;SDS011;42226;42.382;23.748;2022-12-18T12:06:35;4.78;;;4.18;;
56319;SDS011;42226;42.382;23.748;2022-12-18T12:09:23;5.25;;;4.40;;
56319;SDS011;42226;42.382;23.748;2022-12-18T12:15:21;4.73;;;4.30;;
56319;SDS011;42226;42.382;23.748;2022-12-18T12:21:21;6.70;;;4.40;;
56319;SDS011;42226;42.382;23.748;2022-12-18T12:24:23;7.85;;;6.63;;
56319;SDS011;42226;42.382;23.748;2022-12-18T12:27:28;6.25;;;5.13;;
56319;SDS011;42226;42.382;23.748;2022-12-18T12:30:54;6.15;;;5.15;;
56319;SDS011;42226;42.382;23.748;2022-12-18T12:36:41;6.97;;;5.53;;
56319;SDS011;42226;42.382;23.748;2022-12-18T12:42:11;6.55;;;5.22;;
56319;SDS011;42226;42.382;23.748;2022-12-18T12:45:03;6.43;;;5.20;;
56319;SDS011;42226;42.382;23.748;2022-12-18T12:47:40;5.72;;;5.00;;
56319;SDS011;42226;42.382;23.748;2022-12-18T12:50:13;6.55;;;5.70;;
56319;SDS011;42226;42.382;23.748;2022-12-18T12:52:52;6.43;;;5.72;;
56319;SDS011;42226;42.382;23.748;2022-12-18T12:55:22;7.32;;;6.18;;
56319;SDS011;42226;42.382;23.748;2022-12-18T13:00:55;7.45;;;5.60;;
56319;SDS011;42226;42.382;23.748;2022-12-18T13:06:16;8.40;;;6.43;;
56319;SDS011;42226;42.382;23.748;2022-12-18T13:08:59;8.90;;;6.45;;
56319;SDS011;42226;42.382;23.748;2022-12-18T13:11:41;8.25;;;6.65;;
56319;SDS011;42226;42.382;23.748;2022-12-18T13:20:02;7.55;;;6.10;;
56319;SDS011;42226;42.382;23.748;2022-12-18T13:22:38;8.43;;;6.68;;
56319;SDS011;42226;42.382;23.748;2022-12-18T13:28:15;9.57;;;6.28;;
56319;SDS011;42226;42.382;23.748;2022-12-18T13:30:52;7.65;;;6.05;;
56319;SDS011;42226;42.382;23.748;2022-12-18T13:36:33;9.55;;;7.78;;
56319;SDS011;42226;42.382;23.748;2022-12-18T13:39:08;9.43;;;7.47;;
56319;SDS011;42226;42.382;23.748;2022-12-18T13:41:41;7.75;;;6.85;;
56319;SDS011;42226;42.382;23.748;2022-12-18T13:44:32;8.73;;;7.20;;
56319;SDS011;42226;42.382;23.748;2022-12-18T13:47:05;8.60;;;6.90;;
56319;SDS011;42226;42.382;23.748;2022-12-18T13:49:54;10.68;;;7.65;;
56319;SDS011;42226;42.382;23.748;2022-12-18T13:52:26;8.70;;;6.53;;
56319;SDS011;42226;42.382;23.748;2022-12-18T13:55:00;10.25;;;7.95;;
56319;SDS011;42226;42.382;23.748;2022-12-18T13:57:33;9.00;;;7.28;;
56319;SDS011;42226;42.382;23.748;2022-12-18T14:02:51;10.35;;;8.05;;
56319;SDS011;42226;42.382;23.748;2022-12-18T14:05:22;7.75;;;6.07;;
56319;SDS011;42226;42.382;23.748;2022-12-18T14:08:00;9.02;;;7.10;;
56319;SDS011;42226;42.382;23.748;2022-12-18T14:10:51;9.73;;;7.07;;
56319;SDS011;42226;42.382;23.748;2022-12-18T14:13:24;8.82;;;6.60;;
56319;SDS011;42226;42.382;23.748;2022-12-18T14:15:55;9.48;;;7.50;;
56319;SDS011;42226;42.382;23.748;2022-12-18T14:18:24;10.70;;;7.70;;
56319;SDS011;42226;42.382;23.748;2022-12-18T14:21:23;8.15;;;6.43;;
56319;SDS011;42226;42.382;23.748;2022-12-18T14:26:47;9.80;;;7.65;;
56319;SDS011;42226;42.382;23.748;2022-12-18T14:29:23;9.02;;;6.57;;
56319;SDS011;42226;42.382;23.748;2022-12-18T14:34:43;8.57;;;6.50;;
56319;SDS011;42226;42.382;23.748;2022-12-18T14:37:13;8.27;;;6.63;;
56319;SDS011;42226;42.382;23.748;2022-12-18T14:39:53;8.52;;;6.57;;
56319;SDS011;42226;42.382;23.748;2022-12-18T14:42:28;9.10;;;6.60;;
56319;SDS011;42226;42.382;23.748;2022-12-18T14:48:12;8.15;;;6.53;;
56319;SDS011;42226;42.382;23.748;2022-12-18T14:51:03;8.77;;;6.93;;
56319;SDS011;42226;42.382;23.748;2022-12-18T14:53:45;8.23;;;6.80;;
56319;SDS011;42226;42.382;23.748;2022-12-18T14:56:25;9.88;;;7.50;;
56319;SDS011;42226;42.382;23.748;2022-12-18T14:58:58;9.23;;;6.68;;
56319;SDS011;42226;42.382;23.748;2022-12-18T15:01:45;12.65;;;8.18;;
56319;SDS011;42226;42.382;23.748;2022-12-18T15:04:32;10.15;;;7.75;;
56319;SDS011;42226;42.382;23.748;2022-12-18T15:07:17;11.43;;;7.65;;
56319;SDS011;42226;42.382;23.748;2022-12-18T15:10:10;10.98;;;8.00;;
56319;SDS011;42226;42.382;23.748;2022-12-18T15:12:41;12.93;;;8.40;;
56319;SDS011;42226;42.382;23.748;2022-12-18T15:18:05;11.48;;;8.60;;
56319;SDS011;42226;42.382;23.748;2022-12-18T15:20:53;12.25;;;8.50;;
56319;SDS011;42226;42.382;23.748;2022-12-18T15:23:35;10.73;;;8.68;;
56319;SDS011;42226;42.382;23.748;2022-12-18T15:26:12;11.80;;;8.98;;
56319;SDS011;42226;42.382;23.748;2022-12-18T15:28:47;13.43;;;8.75;;
56319;SDS011;42226;42.382;23.748;2022-12-18T15:36:21;12.30;;;8.95;;
56319;SDS011;42226;42.382;23.748;2022-12-18T15:38:50;13.57;;;8.98;;
56319;SDS011;42226;42.382;23.748;2022-12-18T15:41:19;11.95;;;8.82;;
56319;SDS011;42226;42.382;23.748;2022-12-18T15:43:50;13.32;;;8.98;;
56319;SDS011;42226;42.382;23.748;2022-12-18T15:46:21;11.52;;;8.95;;
56319;SDS011;42226;42.382;23.748;2022-12-18T15:48:55;13.05;;;9.40;;
56319;SDS011;42226;42.382;23.748;2022-12-18T15:51:29;14.27;;;9.43;;
56319;SDS011;42226;42.382;23.748;2022-12-18T15:54:02;14.85;;;10.00;;
56319;SDS011;42226;42.382;23.748;2022-12-18T15:56:31;12.30;;;8.38;;
56319;SDS011;42226;42.382;23.748;2022-12-18T15:59:17;12.38;;;8.80;;
56319;SDS011;42226;42.382;23.748;2022-12-18T16:01:47;11.20;;;8.43;;
56319;SDS011;42226;42.382;23.748;2022-12-18T16:04:18;10.20;;;8.52;;
56319;SDS011;42226;42.382;23.748;2022-12-18T16:06:47;13.35;;;9.02;;
56319;SDS011;42226;42.382;23.748;2022-12-18T16:09:14;14.18;;;9.13;;
56319;SDS011;42226;42.382;23.748;2022-12-18T16:11:42;13.73;;;9.98;;
56319;SDS011;42226;42.382;23.748;2022-12-18T16:14:21;12.48;;;8.55;;
56319;SDS011;42226;42.382;23.748;2022-12-18T16:16:53;11.27;;;9.15;;
56319;SDS011;42226;42.382;23.748;2022-12-18T16:19:21;12.10;;;9.18;;
56319;SDS011;42226;42.382;23.748;2022-12-18T16:21:48;11.40;;;9.10;;
56319;SDS011;42226;42.382;23.748;2022-12-18T16:24:17;11.35;;;8.45;;
56319;SDS011;42226;42.382;23.748;2022-12-18T16:26:50;10.73;;;8.50;;
56319;SDS011;42226;42.382;23.748;2022-12-18T16:29:18;10.07;;;7.90;;
56319;SDS011;42226;42.382;23.748;2022-12-18T16:31:50;11.80;;;8.70;;
56319;SDS011;42226;42.382;23.748;2022-12-18T16:34:21;11.75;;;8.50;;
56319;SDS011;42226;42.382;23.748;2022-12-18T16:36:57;10.05;;;8.48;;
56319;SDS011;42226;42.382;23.748;2022-12-18T16:39:26;11.20;;;8.48;;
56319;SDS011;42226;42.382;23.748;2022-12-18T16:41:55;12.05;;;8.10;;
56319;SDS011;42226;42.382;23.748;2022-12-18T16:44:22;11.20;;;8.38;;
56319;SDS011;42226;42.382;23.748;2022-12-18T16:46:49;10.30;;;8.10;;
56319;SDS011;42226;42.382;23.748;2022-12-18T16:49:17;10.27;;;7.68;;
56319;SDS011;42226;42.382;23.748;2022-12-18T16:51:47;9.60;;;7.60;;
56319;SDS011;42226;42.382;23.748;2022-12-18T16:54:14;9.65;;;7.25;;
56319;SDS011;42226;42.382;23.748;2022-12-18T16:56:43;11.75;;;7.50;;
56319;SDS011;42226;42.382;23.748;2022-12-18T16:59:11;8.32;;;6.20;;